Time Latitude Longitude Accuracy (66% radius in meters) Altitude (meters) Speed (km/hour) Bearing (degrees) Battery (%) GPS flag
06:33:02 57.203907 60.118289 0 0 0 0 1 delete
06:33:01 57.203915 60.118277 0 0 0 0 1 delete
06:33:00 57.203923 60.118263 0 0 0 0 1 delete
06:32:59 57.203931 60.118246 0 0 0 0 1 delete
06:32:58 57.203939 60.118226 0 0 0 0 1 delete
06:32:57 57.203947 60.118202 0 0 0 0 1 delete
06:32:56 57.203954 60.118181 0 0 0 0 1 delete
06:32:55 57.203963 60.118160 0 0 0 0 1 delete
06:32:54 57.203972 60.118145 0 0 0 0 1 delete
06:32:53 57.203980 60.118132 0 0 0 0 1 delete
06:32:52 57.203988 60.118122 0 0 0 0 1 delete
06:32:51 57.203995 60.118114 0 0 0 0 1 delete
06:32:50 57.204001 60.118108 0 0 0 0 1 delete
06:32:49 57.204000 60.118101 0 0 0 0 1 delete
06:32:48 57.204002 60.118097 0 0 0 0 1 delete
06:32:47 57.204009 60.118081 0 0 0 0 1 delete
06:32:46 57.204031 60.118055 0 0 0 0 1 delete
06:32:45 57.204058 60.118013 0 0 0 0 1 delete
06:32:44 57.204090 60.117970 0 0 0 0 1 delete
06:32:43 57.204120 60.117925 0 0 0 0 1 delete
06:32:42 57.204150 60.117877 0 0 0 0 1 delete
06:32:41 57.204178 60.117830 0 0 0 0 1 delete
06:32:40 57.204208 60.117783 0 0 0 0 1 delete
06:32:39 57.204239 60.117737 0 0 0 0 1 delete
06:32:38 57.204272 60.117694 0 0 0 0 1 delete
06:32:37 57.204306 60.117644 0 0 0 0 1 delete
06:32:36 57.204341 60.117592 0 0 0 0 1 delete
06:32:35 57.204380 60.117541 0 0 0 0 1 delete
06:32:34 57.204420 60.117497 0 0 0 0 1 delete
06:32:33 57.204465 60.117463 0 0 0 0 1 delete
06:32:32 57.204510 60.117430 0 0 0 0 1 delete
06:32:31 57.204558 60.117402 0 0 0 0 1 delete
06:32:30 57.204608 60.117380 0 0 0 0 1 delete
06:32:29 57.204660 60.117365 0 0 0 0 1 delete
06:32:28 57.204711 60.117364 0 0 0 0 1 delete
06:32:27 57.204760 60.117368 0 0 0 0 1 delete
06:32:26 57.204809 60.117383 0 0 0 0 1 delete
06:32:25 57.204857 60.117402 0 0 0 0 1 delete
06:32:24 57.204904 60.117433 0 0 0 0 1 delete
06:32:23 57.204949 60.117463 0 0 0 0 1 delete
06:32:22 57.204990 60.117491 0 0 0 0 1 delete
06:32:21 57.205027 60.117509 0 0 0 0 1 delete
06:32:20 57.205062 60.117522 0 0 0 0 1 delete
06:32:19 57.205092 60.117531 0 0 0 0 1 delete
06:32:18 57.205115 60.117544 0 0 0 0 1 delete
06:32:17 57.205131 60.117561 0 0 0 0 1 delete
06:32:16 57.205143 60.117582 0 0 0 0 1 delete
06:32:15 57.205148 60.117603 0 0 0 0 1 delete
06:32:14 57.205148 60.117617 0 0 0 0 1 delete
06:32:13 57.205146 60.117625 0 0 0 0 1 delete